sensor_id;sensor_type;location;lat;lon;timestamp;P1;durP1;ratioP1;P2;durP2;ratioP2
16737;SDS011;17906;47.684;10.806;2023-08-06T00:02:18;4.43;;;3.00;;
16737;SDS011;17906;47.684;10.806;2023-08-06T00:04:44;5.70;;;3.60;;
16737;SDS011;17906;47.684;10.806;2023-08-06T00:07:11;3.53;;;2.80;;
16737;SDS011;17906;47.684;10.806;2023-08-06T00:09:38;4.67;;;2.70;;
16737;SDS011;17906;47.684;10.806;2023-08-06T00:12:04;4.00;;;2.60;;
16737;SDS011;17906;47.684;10.806;2023-08-06T00:14:32;7.97;;;2.90;;
16737;SDS011;17906;47.684;10.806;2023-08-06T00:16:58;5.00;;;3.10;;
16737;SDS011;17906;47.684;10.806;2023-08-06T00:19:25;4.87;;;2.70;;
16737;SDS011;17906;47.684;10.806;2023-08-06T00:21:51;3.20;;;2.53;;
16737;SDS011;17906;47.684;10.806;2023-08-06T00:24:18;4.60;;;2.87;;
16737;SDS011;17906;47.684;10.806;2023-08-06T00:26:44;4.57;;;2.60;;
16737;SDS011;17906;47.684;10.806;2023-08-06T00:29:11;3.80;;;2.30;;
16737;SDS011;17906;47.684;10.806;2023-08-06T00:31:39;3.60;;;2.23;;
16737;SDS011;17906;47.684;10.806;2023-08-06T00:34:05;2.57;;;1.90;;
16737;SDS011;17906;47.684;10.806;2023-08-06T00:36:31;2.77;;;1.80;;
16737;SDS011;17906;47.684;10.806;2023-08-06T00:38:58;2.33;;;1.83;;
16737;SDS011;17906;47.684;10.806;2023-08-06T00:41:24;2.00;;;1.80;;
16737;SDS011;17906;47.684;10.806;2023-08-06T00:43:51;3.97;;;2.00;;
16737;SDS011;17906;47.684;10.806;2023-08-06T00:46:17;2.30;;;1.90;;
16737;SDS011;17906;47.684;10.806;2023-08-06T00:48:45;4.97;;;2.00;;
16737;SDS011;17906;47.684;10.806;2023-08-06T00:51:11;2.20;;;1.87;;
16737;SDS011;17906;47.684;10.806;2023-08-06T00:53:38;2.60;;;1.90;;
16737;SDS011;17906;47.684;10.806;2023-08-06T00:56:05;2.20;;;1.80;;
16737;SDS011;17906;47.684;10.806;2023-08-06T00:58:32;2.80;;;1.60;;
16737;SDS011;17906;47.684;10.806;2023-08-06T01:00:58;3.17;;;2.10;;
16737;SDS011;17906;47.684;10.806;2023-08-06T01:03:25;3.77;;;2.20;;
16737;SDS011;17906;47.684;10.806;2023-08-06T01:05:53;3.77;;;2.10;;
16737;SDS011;17906;47.684;10.806;2023-08-06T01:08:23;4.00;;;2.00;;
16737;SDS011;17906;47.684;10.806;2023-08-06T01:10:57;6.13;;;2.10;;
16737;SDS011;17906;47.684;10.806;2023-08-06T01:13:27;3.13;;;2.43;;
16737;SDS011;17906;47.684;10.806;2023-08-06T01:15:57;3.07;;;2.10;;
16737;SDS011;17906;47.684;10.806;2023-08-06T01:18:24;3.80;;;2.10;;
16737;SDS011;17906;47.684;10.806;2023-08-06T01:20:52;3.67;;;2.00;;
16737;SDS011;17906;47.684;10.806;2023-08-06T01:23:18;2.50;;;2.00;;
16737;SDS011;17906;47.684;10.806;2023-08-06T01:25:46;2.60;;;2.00;;
16737;SDS011;17906;47.684;10.806;2023-08-06T01:28:15;2.70;;;2.00;;
16737;SDS011;17906;47.684;10.806;2023-08-06T01:30:43;3.30;;;2.00;;
16737;SDS011;17906;47.684;10.806;2023-08-06T01:33:13;2.27;;;1.90;;
16737;SDS011;17906;47.684;10.806;2023-08-06T01:35:40;4.20;;;1.50;;
16737;SDS011;17906;47.684;10.806;2023-08-06T01:38:09;2.27;;;1.73;;
16737;SDS011;17906;47.684;10.806;2023-08-06T01:40:36;2.27;;;1.80;;
16737;SDS011;17906;47.684;10.806;2023-08-06T01:43:02;5.00;;;1.90;;
16737;SDS011;17906;47.684;10.806;2023-08-06T01:45:29;2.93;;;1.70;;
16737;SDS011;17906;47.684;10.806;2023-08-06T01:47:55;4.07;;;2.20;;
16737;SDS011;17906;47.684;10.806;2023-08-06T01:50:21;3.83;;;2.23;;
16737;SDS011;17906;47.684;10.806;2023-08-06T01:52:48;2.43;;;1.67;;
16737;SDS011;17906;47.684;10.806;2023-08-06T01:55:15;4.40;;;1.90;;
16737;SDS011;17906;47.684;10.806;2023-08-06T01:57:43;3.27;;;2.10;;
16737;SDS011;17906;47.684;10.806;2023-08-06T02:00:10;2.73;;;2.03;;
16737;SDS011;17906;47.684;10.806;2023-08-06T02:02:37;3.87;;;1.80;;
16737;SDS011;17906;47.684;10.806;2023-08-06T02:05:03;2.50;;;1.90;;
16737;SDS011;17906;47.684;10.806;2023-08-06T02:07:30;2.90;;;1.77;;
16737;SDS011;17906;47.684;10.806;2023-08-06T02:09:56;2.70;;;1.77;;
16737;SDS011;17906;47.684;10.806;2023-08-06T02:12:24;3.13;;;2.00;;
16737;SDS011;17906;47.684;10.806;2023-08-06T02:14:50;3.87;;;1.97;;
16737;SDS011;17906;47.684;10.806;2023-08-06T02:17:17;3.63;;;2.20;;
16737;SDS011;17906;47.684;10.806;2023-08-06T02:19:43;4.40;;;2.07;;
16737;SDS011;17906;47.684;10.806;2023-08-06T02:22:10;2.93;;;2.20;;
16737;SDS011;17906;47.684;10.806;2023-08-06T02:24:36;2.60;;;1.90;;
16737;SDS011;17906;47.684;10.806;2023-08-06T02:27:02;4.70;;;2.00;;
16737;SDS011;17906;47.684;10.806;2023-08-06T02:29:30;3.33;;;1.53;;
16737;SDS011;17906;47.684;10.806;2023-08-06T02:31:57;3.33;;;1.90;;
16737;SDS011;17906;47.684;10.806;2023-08-06T02:34:24;3.67;;;2.00;;
16737;SDS011;17906;47.684;10.806;2023-08-06T02:36:50;2.40;;;1.93;;
16737;SDS011;17906;47.684;10.806;2023-08-06T02:39:17;2.73;;;1.77;;
16737;SDS011;17906;47.684;10.806;2023-08-06T02:41:43;2.90;;;1.80;;
16737;SDS011;17906;47.684;10.806;2023-08-06T02:44:10;4.77;;;2.07;;
16737;SDS011;17906;47.684;10.806;2023-08-06T02:46:37;2.60;;;1.87;;
16737;SDS011;17906;47.684;10.806;2023-08-06T02:49:04;4.57;;;1.80;;
16737;SDS011;17906;47.684;10.806;2023-08-06T02:51:30;5.47;;;2.00;;
16737;SDS011;17906;47.684;10.806;2023-08-06T02:53:56;3.53;;;1.60;;
16737;SDS011;17906;47.684;10.806;2023-08-06T02:56:22;3.90;;;1.80;;
16737;SDS011;17906;47.684;10.806;2023-08-06T02:58:48;2.10;;;1.60;;
16737;SDS011;17906;47.684;10.806;2023-08-06T03:01:15;2.37;;;1.77;;
16737;SDS011;17906;47.684;10.806;2023-08-06T03:03:43;3.03;;;1.93;;
16737;SDS011;17906;47.684;10.806;2023-08-06T03:06:09;4.70;;;2.20;;
16737;SDS011;17906;47.684;10.806;2023-08-06T03:08:36;5.37;;;2.03;;
16737;SDS011;17906;47.684;10.806;2023-08-06T03:11:03;3.53;;;1.60;;
16737;SDS011;17906;47.684;10.806;2023-08-06T03:13:29;2.80;;;1.60;;
16737;SDS011;17906;47.684;10.806;2023-08-06T03:15:56;2.27;;;1.57;;
16737;SDS011;17906;47.684;10.806;2023-08-06T03:18:23;1.93;;;1.53;;
16737;SDS011;17906;47.684;10.806;2023-08-06T03:20:52;4.03;;;1.70;;
16737;SDS011;17906;47.684;10.806;2023-08-06T03:23:18;4.67;;;1.70;;
16737;SDS011;17906;47.684;10.806;2023-08-06T03:25:45;4.70;;;1.87;;
16737;SDS011;17906;47.684;10.806;2023-08-06T03:28:12;2.90;;;2.00;;
16737;SDS011;17906;47.684;10.806;2023-08-06T03:30:38;3.10;;;1.60;;
16737;SDS011;17906;47.684;10.806;2023-08-06T03:33:04;4.60;;;1.80;;
16737;SDS011;17906;47.684;10.806;2023-08-06T03:35:33;1.83;;;1.47;;
16737;SDS011;17906;47.684;10.806;2023-08-06T03:38:00;6.57;;;1.83;;
16737;SDS011;17906;47.684;10.806;2023-08-06T03:40:27;2.77;;;2.03;;
16737;SDS011;17906;47.684;10.806;2023-08-06T03:42:53;2.40;;;1.83;;
16737;SDS011;17906;47.684;10.806;2023-08-06T03:45:19;2.97;;;1.80;;
16737;SDS011;17906;47.684;10.806;2023-08-06T03:47:46;3.57;;;1.60;;
16737;SDS011;17906;47.684;10.806;2023-08-06T03:50:12;4.90;;;1.70;;
16737;SDS011;17906;47.684;10.806;2023-08-06T03:52:38;2.53;;;1.30;;
16737;SDS011;17906;47.684;10.806;2023-08-06T03:55:06;2.80;;;1.90;;
16737;SDS011;17906;47.684;10.806;2023-08-06T03:57:33;2.53;;;1.50;;
16737;SDS011;17906;47.684;10.806;2023-08-06T03:59:59;2.33;;;1.50;;
16737;SDS011;17906;47.684;10.806;2023-08-06T04:02:25;3.70;;;1.60;;
16737;SDS011;17906;47.684;10.806;2023-08-06T04:04:52;1.90;;;1.60;;
16737;SDS011;17906;47.684;10.806;2023-08-06T04:07:19;2.23;;;1.40;;
16737;SDS011;17906;47.684;10.806;2023-08-06T04:09:55;4.20;;;2.10;;
16737;SDS011;17906;47.684;10.806;2023-08-06T04:12:22;2.53;;;1.60;;
16737;SDS011;17906;47.684;10.806;2023-08-06T04:14:49;3.00;;;1.67;;
16737;SDS011;17906;47.684;10.806;2023-08-06T04:17:16;3.23;;;1.93;;
16737;SDS011;17906;47.684;10.806;2023-08-06T04:19:45;6.63;;;1.73;;
16737;SDS011;17906;47.684;10.806;2023-08-06T04:22:11;3.73;;;1.80;;
16737;SDS011;17906;47.684;10.806;2023-08-06T04:24:38;2.37;;;1.40;;
16737;SDS011;17906;47.684;10.806;2023-08-06T04:27:04;2.03;;;1.40;;
16737;SDS011;17906;47.684;10.806;2023-08-06T04:29:32;3.70;;;2.30;;
16737;SDS011;17906;47.684;10.806;2023-08-06T04:31:58;3.50;;;1.67;;
16737;SDS011;17906;47.684;10.806;2023-08-06T04:34:24;3.80;;;1.40;;
16737;SDS011;17906;47.684;10.806;2023-08-06T04:36:51;3.00;;;1.90;;
16737;SDS011;17906;47.684;10.806;2023-08-06T04:39:18;3.10;;;1.80;;
16737;SDS011;17906;47.684;10.806;2023-08-06T04:41:44;2.83;;;1.70;;
16737;SDS011;17906;47.684;10.806;2023-08-06T04:44:10;2.93;;;1.80;;
16737;SDS011;17906;47.684;10.806;2023-08-06T04:46:38;3.50;;;1.80;;
16737;SDS011;17906;47.684;10.806;2023-08-06T04:49:05;2.63;;;1.80;;
16737;SDS011;17906;47.684;10.806;2023-08-06T04:51:31;2.80;;;1.80;;
16737;SDS011;17906;47.684;10.806;2023-08-06T04:53:57;2.60;;;1.80;;
16737;SDS011;17906;47.684;10.806;2023-08-06T04:56:24;3.43;;;1.70;;
16737;SDS011;17906;47.684;10.806;2023-08-06T04:58:50;2.83;;;1.43;;
16737;SDS011;17906;47.684;10.806;2023-08-06T05:01:17;3.60;;;1.30;;
16737;SDS011;17906;47.684;10.806;2023-08-06T05:03:44;2.17;;;1.30;;
16737;SDS011;17906;47.684;10.806;2023-08-06T05:06:11;2.13;;;1.40;;
16737;SDS011;17906;47.684;10.806;2023-08-06T05:08:37;3.57;;;1.33;;
16737;SDS011;17906;47.684;10.806;2023-08-06T05:11:03;3.27;;;1.20;;
16737;SDS011;17906;47.684;10.806;2023-08-06T05:13:30;5.20;;;1.50;;
16737;SDS011;17906;47.684;10.806;2023-08-06T05:15:56;4.90;;;1.50;;
16737;SDS011;17906;47.684;10.806;2023-08-06T05:18:23;2.13;;;1.27;;
16737;SDS011;17906;47.684;10.806;2023-08-06T05:20:50;2.43;;;1.30;;
16737;SDS011;17906;47.684;10.806;2023-08-06T05:23:17;1.67;;;1.10;;
16737;SDS011;17906;47.684;10.806;2023-08-06T05:25:43;1.87;;;1.10;;
16737;SDS011;17906;47.684;10.806;2023-08-06T05:28:09;1.63;;;1.30;;
16737;SDS011;17906;47.684;10.806;2023-08-06T05:30:38;1.90;;;1.30;;
16737;SDS011;17906;47.684;10.806;2023-08-06T05:33:05;2.37;;;1.20;;
16737;SDS011;17906;47.684;10.806;2023-08-06T05:35:31;1.90;;;1.20;;
16737;SDS011;17906;47.684;10.806;2023-08-06T05:37:59;3.83;;;1.40;;
16737;SDS011;17906;47.684;10.806;2023-08-06T05:40:25;1.77;;;1.20;;
16737;SDS011;17906;47.684;10.806;2023-08-06T05:42:53;2.53;;;1.30;;
16737;SDS011;17906;47.684;10.806;2023-08-06T05:45:19;2.07;;;1.20;;
16737;SDS011;17906;47.684;10.806;2023-08-06T05:47:47;3.03;;;1.30;;
16737;SDS011;17906;47.684;10.806;2023-08-06T05:50:13;3.00;;;1.37;;
16737;SDS011;17906;47.684;10.806;2023-08-06T05:52:40;1.80;;;1.10;;
16737;SDS011;17906;47.684;10.806;2023-08-06T05:55:08;1.93;;;1.00;;
16737;SDS011;17906;47.684;10.806;2023-08-06T05:57:34;2.60;;;1.00;;
16737;SDS011;17906;47.684;10.806;2023-08-06T06:00:00;1.30;;;0.83;;
16737;SDS011;17906;47.684;10.806;2023-08-06T06:02:27;1.60;;;1.00;;
16737;SDS011;17906;47.684;10.806;2023-08-06T06:04:54;2.43;;;1.00;;
16737;SDS011;17906;47.684;10.806;2023-08-06T06:07:20;1.80;;;1.00;;
16737;SDS011;17906;47.684;10.806;2023-08-06T06:09:46;3.17;;;0.87;;
16737;SDS011;17906;47.684;10.806;2023-08-06T06:12:14;1.37;;;1.00;;
16737;SDS011;17906;47.684;10.806;2023-08-06T06:14:40;2.97;;;1.47;;
16737;SDS011;17906;47.684;10.806;2023-08-06T06:17:07;1.83;;;1.27;;
16737;SDS011;17906;47.684;10.806;2023-08-06T06:19:33;1.47;;;1.07;;
16737;SDS011;17906;47.684;10.806;2023-08-06T06:21:59;1.40;;;1.10;;
16737;SDS011;17906;47.684;10.806;2023-08-06T06:24:26;2.80;;;1.60;;
16737;SDS011;17906;47.684;10.806;2023-08-06T06:26:52;2.07;;;1.07;;
16737;SDS011;17906;47.684;10.806;2023-08-06T06:29:20;2.03;;;1.30;;
16737;SDS011;17906;47.684;10.806;2023-08-06T06:31:46;1.93;;;1.30;;
16737;SDS011;17906;47.684;10.806;2023-08-06T06:34:13;2.70;;;1.20;;
16737;SDS011;17906;47.684;10.806;2023-08-06T06:36:39;5.93;;;1.87;;
16737;SDS011;17906;47.684;10.806;2023-08-06T06:39:06;2.53;;;1.27;;
16737;SDS011;17906;47.684;10.806;2023-08-06T06:41:33;2.70;;;1.20;;
16737;SDS011;17906;47.684;10.806;2023-08-06T06:43:59;1.83;;;1.00;;
16737;SDS011;17906;47.684;10.806;2023-08-06T06:46:27;3.37;;;1.40;;
16737;SDS011;17906;47.684;10.806;2023-08-06T06:48:53;4.10;;;1.93;;
16737;SDS011;17906;47.684;10.806;2023-08-06T06:51:20;3.40;;;1.20;;
16737;SDS011;17906;47.684;10.806;2023-08-06T06:53:46;3.83;;;1.40;;
16737;SDS011;17906;47.684;10.806;2023-08-06T06:56:12;4.43;;;1.00;;
16737;SDS011;17906;47.684;10.806;2023-08-06T06:58:39;1.90;;;0.90;;
16737;SDS011;17906;47.684;10.806;2023-08-06T07:01:06;1.60;;;0.80;;
16737;SDS011;17906;47.684;10.806;2023-08-06T07:03:34;2.57;;;1.27;;
16737;SDS011;17906;47.684;10.806;2023-08-06T07:06:00;2.00;;;0.80;;
16737;SDS011;17906;47.684;10.806;2023-08-06T07:08:26;2.57;;;0.67;;
16737;SDS011;17906;47.684;10.806;2023-08-06T07:10:59;2.70;;;0.80;;
16737;SDS011;17906;47.684;10.806;2023-08-06T07:13:25;1.63;;;0.60;;
16737;SDS011;17906;47.684;10.806;2023-08-06T07:15:52;1.57;;;0.90;;
16737;SDS011;17906;47.684;10.806;2023-08-06T07:18:20;2.43;;;1.20;;
16737;SDS011;17906;47.684;10.806;2023-08-06T07:20:49;3.77;;;0.77;;
16737;SDS011;17906;47.684;10.806;2023-08-06T07:23:15;1.40;;;0.60;;
16737;SDS011;17906;47.684;10.806;2023-08-06T07:25:41;0.90;;;0.60;;
16737;SDS011;17906;47.684;10.806;2023-08-06T07:28:08;10.67;;;4.10;;
16737;SDS011;17906;47.684;10.806;2023-08-06T07:30:38;11.00;;;4.33;;
16737;SDS011;17906;47.684;10.806;2023-08-06T07:33:04;7.63;;;2.27;;
16737;SDS011;17906;47.684;10.806;2023-08-06T07:35:31;4.23;;;2.27;;
16737;SDS011;17906;47.684;10.806;2023-08-06T07:37:59;6.10;;;1.67;;
16737;SDS011;17906;47.684;10.806;2023-08-06T07:40:26;5.50;;;3.00;;
16737;SDS011;17906;47.684;10.806;2023-08-06T07:42:52;12.67;;;7.90;;
16737;SDS011;17906;47.684;10.806;2023-08-06T07:45:18;3.10;;;1.90;;
16737;SDS011;17906;47.684;10.806;2023-08-06T07:47:45;4.07;;;2.37;;
16737;SDS011;17906;47.684;10.806;2023-08-06T07:50:11;4.90;;;1.80;;
16737;SDS011;17906;47.684;10.806;2023-08-06T07:52:38;3.90;;;2.27;;
16737;SDS011;17906;47.684;10.806;2023-08-06T07:55:06;1.03;;;0.43;;
16737;SDS011;17906;47.684;10.806;2023-08-06T07:57:33;1.10;;;0.40;;
16737;SDS011;17906;47.684;10.806;2023-08-06T07:59:59;2.30;;;0.60;;
16737;SDS011;17906;47.684;10.806;2023-08-06T08:02:26;0.87;;;0.33;;
16737;SDS011;17906;47.684;10.806;2023-08-06T08:04:52;2.47;;;0.50;;
16737;SDS011;17906;47.684;10.806;2023-08-06T08:07:19;1.40;;;0.50;;
16737;SDS011;17906;47.684;10.806;2023-08-06T08:09:45;4.97;;;1.70;;
16737;SDS011;17906;47.684;10.806;2023-08-06T08:12:14;2.83;;;1.87;;
16737;SDS011;17906;47.684;10.806;2023-08-06T08:14:41;1.90;;;0.70;;
16737;SDS011;17906;47.684;10.806;2023-08-06T08:17:10;0.93;;;0.40;;
16737;SDS011;17906;47.684;10.806;2023-08-06T08:19:36;0.60;;;0.30;;
16737;SDS011;17906;47.684;10.806;2023-08-06T08:22:03;1.50;;;0.40;;
16737;SDS011;17906;47.684;10.806;2023-08-06T08:24:29;2.47;;;0.37;;
16737;SDS011;17906;47.684;10.806;2023-08-06T08:26:56;2.33;;;0.57;;
16737;SDS011;17906;47.684;10.806;2023-08-06T08:29:24;2.00;;;0.67;;
16737;SDS011;17906;47.684;10.806;2023-08-06T08:31:50;0.43;;;0.40;;
16737;SDS011;17906;47.684;10.806;2023-08-06T08:34:17;0.60;;;0.30;;
16737;SDS011;17906;47.684;10.806;2023-08-06T08:36:43;0.83;;;0.40;;
16737;SDS011;17906;47.684;10.806;2023-08-06T08:39:12;0.50;;;0.30;;
16737;SDS011;17906;47.684;10.806;2023-08-06T08:41:38;1.83;;;0.30;;
16737;SDS011;17906;47.684;10.806;2023-08-06T08:44:05;1.63;;;0.87;;
16737;SDS011;17906;47.684;10.806;2023-08-06T08:46:35;0.53;;;0.30;;
16737;SDS011;17906;47.684;10.806;2023-08-06T08:49:02;3.50;;;0.40;;
16737;SDS011;17906;47.684;10.806;2023-08-06T08:51:28;4.43;;;0.30;;
16737;SDS011;17906;47.684;10.806;2023-08-06T08:53:55;1.53;;;0.40;;
16737;SDS011;17906;47.684;10.806;2023-08-06T08:56:22;1.37;;;0.70;;
16737;SDS011;17906;47.684;10.806;2023-08-06T08:58:49;1.57;;;0.50;;
16737;SDS011;17906;47.684;10.806;2023-08-06T09:01:15;0.73;;;0.40;;
16737;SDS011;17906;47.684;10.806;2023-08-06T09:03:43;1.40;;;0.40;;
16737;SDS011;17906;47.684;10.806;2023-08-06T09:06:10;1.63;;;0.30;;
16737;SDS011;17906;47.684;10.806;2023-08-06T09:08:38;0.40;;;0.30;;
16737;SDS011;17906;47.684;10.806;2023-08-06T09:11:05;0.73;;;0.30;;
16737;SDS011;17906;47.684;10.806;2023-08-06T09:13:35;0.83;;;0.20;;
16737;SDS011;17906;47.684;10.806;2023-08-06T09:16:02;1.30;;;0.30;;
16737;SDS011;17906;47.684;10.806;2023-08-06T09:18:29;0.77;;;0.20;;
16737;SDS011;17906;47.684;10.806;2023-08-06T09:20:57;0.27;;;0.23;;
16737;SDS011;17906;47.684;10.806;2023-08-06T09:23:27;2.13;;;0.40;;
16737;SDS011;17906;47.684;10.806;2023-08-06T09:25:54;1.07;;;0.30;;
16737;SDS011;17906;47.684;10.806;2023-08-06T09:28:20;0.83;;;0.30;;
16737;SDS011;17906;47.684;10.806;2023-08-06T09:30:47;1.23;;;0.27;;
16737;SDS011;17906;47.684;10.806;2023-08-06T09:33:14;0.80;;;0.40;;
16737;SDS011;17906;47.684;10.806;2023-08-06T09:35:45;0.57;;;0.27;;
16737;SDS011;17906;47.684;10.806;2023-08-06T09:38:13;0.53;;;0.30;;
16737;SDS011;17906;47.684;10.806;2023-08-06T09:40:39;2.17;;;0.40;;
16737;SDS011;17906;47.684;10.806;2023-08-06T09:43:07;0.73;;;0.20;;
16737;SDS011;17906;47.684;10.806;2023-08-06T09:45:34;0.73;;;0.40;;
16737;SDS011;17906;47.684;10.806;2023-08-06T09:48:02;0.53;;;0.30;;
16737;SDS011;17906;47.684;10.806;2023-08-06T09:50:29;1.17;;;0.37;;
16737;SDS011;17906;47.684;10.806;2023-08-06T09:52:57;4.53;;;0.60;;
16737;SDS011;17906;47.684;10.806;2023-08-06T09:55:25;0.73;;;0.20;;
16737;SDS011;17906;47.684;10.806;2023-08-06T09:57:52;1.53;;;0.40;;
16737;SDS011;17906;47.684;10.806;2023-08-06T10:00:19;0.50;;;0.30;;
16737;SDS011;17906;47.684;10.806;2023-08-06T10:02:45;0.50;;;0.23;;
16737;SDS011;17906;47.684;10.806;2023-08-06T10:05:13;0.83;;;0.30;;
16737;SDS011;17906;47.684;10.806;2023-08-06T10:07:40;1.00;;;0.37;;
16737;SDS011;17906;47.684;10.806;2023-08-06T10:10:08;0.33;;;0.20;;
16737;SDS011;17906;47.684;10.806;2023-08-06T10:12:37;0.67;;;0.30;;
16737;SDS011;17906;47.684;10.806;2023-08-06T10:15:06;0.27;;;0.20;;
16737;SDS011;17906;47.684;10.806;2023-08-06T10:17:34;1.20;;;0.30;;
16737;SDS011;17906;47.684;10.806;2023-08-06T10:20:02;0.97;;;0.30;;
16737;SDS011;17906;47.684;10.806;2023-08-06T10:22:30;0.83;;;0.20;;
16737;SDS011;17906;47.684;10.806;2023-08-06T10:24:58;9.47;;;0.53;;
16737;SDS011;17906;47.684;10.806;2023-08-06T10:27:29;1.73;;;0.33;;
16737;SDS011;17906;47.684;10.806;2023-08-06T10:30:10;0.60;;;0.43;;
16737;SDS011;17906;47.684;10.806;2023-08-06T10:32:47;1.63;;;0.30;;
16737;SDS011;17906;47.684;10.806;2023-08-06T10:35:27;0.20;;;0.20;;
16737;SDS011;17906;47.684;10.806;2023-08-06T10:37:54;0.20;;;0.20;;
16737;SDS011;17906;47.684;10.806;2023-08-06T10:40:23;1.90;;;0.30;;
16737;SDS011;17906;47.684;10.806;2023-08-06T10:42:51;1.57;;;0.30;;
16737;SDS011;17906;47.684;10.806;2023-08-06T10:45:19;0.40;;;0.20;;
16737;SDS011;17906;47.684;10.806;2023-08-06T10:47:46;0.97;;;0.20;;
16737;SDS011;17906;47.684;10.806;2023-08-06T10:50:12;0.50;;;0.40;;
16737;SDS011;17906;47.684;10.806;2023-08-06T10:52:41;0.87;;;0.53;;
16737;SDS011;17906;47.684;10.806;2023-08-06T10:55:08;1.00;;;0.70;;
16737;SDS011;17906;47.684;10.806;2023-08-06T10:57:35;1.20;;;0.70;;
16737;SDS011;17906;47.684;10.806;2023-08-06T11:00:01;0.60;;;0.33;;
16737;SDS011;17906;47.684;10.806;2023-08-06T11:02:29;0.20;;;0.10;;
16737;SDS011;17906;47.684;10.806;2023-08-06T11:05:04;0.20;;;0.20;;
16737;SDS011;17906;47.684;10.806;2023-08-06T11:07:31;0.27;;;0.20;;
16737;SDS011;17906;47.684;10.806;2023-08-06T11:10:00;0.30;;;0.10;;
16737;SDS011;17906;47.684;10.806;2023-08-06T11:12:27;1.33;;;0.30;;
16737;SDS011;17906;47.684;10.806;2023-08-06T11:14:54;0.43;;;0.20;;
16737;SDS011;17906;47.684;10.806;2023-08-06T11:17:20;1.33;;;0.40;;
16737;SDS011;17906;47.684;10.806;2023-08-06T11:19:47;0.73;;;0.30;;
16737;SDS011;17906;47.684;10.806;2023-08-06T11:22:14;0.43;;;0.10;;
16737;SDS011;17906;47.684;10.806;2023-08-06T11:24:40;0.33;;;0.10;;
16737;SDS011;17906;47.684;10.806;2023-08-06T11:27:11;0.10;;;0.10;;
16737;SDS011;17906;47.684;10.806;2023-08-06T11:29:37;0.33;;;0.00;;
16737;SDS011;17906;47.684;10.806;2023-08-06T11:32:04;0.10;;;0.10;;
16737;SDS011;17906;47.684;10.806;2023-08-06T11:34:30;0.20;;;0.10;;
16737;SDS011;17906;47.684;10.806;2023-08-06T11:36:58;0.00;;;0.00;;
16737;SDS011;17906;47.684;10.806;2023-08-06T11:39:24;0.30;;;0.00;;
16737;SDS011;17906;47.684;10.806;2023-08-06T11:41:51;0.20;;;0.00;;
16737;SDS011;17906;47.684;10.806;2023-08-06T11:44:18;0.00;;;0.00;;
16737;SDS011;17906;47.684;10.806;2023-08-06T11:46:50;0.00;;;0.00;;
16737;SDS011;17906;47.684;10.806;2023-08-06T11:49:18;0.00;;;0.00;;
16737;SDS011;17906;47.684;10.806;2023-08-06T11:51:46;1.30;;;0.03;;
16737;SDS011;17906;47.684;10.806;2023-08-06T11:54:14;0.53;;;0.10;;
16737;SDS011;17906;47.684;10.806;2023-08-06T11:56:41;1.40;;;0.07;;
16737;SDS011;17906;47.684;10.806;2023-08-06T11:59:08;0.00;;;0.00;;
16737;SDS011;17906;47.684;10.806;2023-08-06T12:01:35;0.30;;;0.20;;
16737;SDS011;17906;47.684;10.806;2023-08-06T12:04:01;0.10;;;0.10;;
16737;SDS011;17906;47.684;10.806;2023-08-06T12:06:30;0.00;;;0.00;;
16737;SDS011;17906;47.684;10.806;2023-08-06T12:08:56;0.10;;;0.10;;
16737;SDS011;17906;47.684;10.806;2023-08-06T12:11:24;0.10;;;0.00;;
16737;SDS011;17906;47.684;10.806;2023-08-06T12:13:50;1.10;;;0.10;;
16737;SDS011;17906;47.684;10.806;2023-08-06T12:16:17;0.47;;;0.10;;
16737;SDS011;17906;47.684;10.806;2023-08-06T12:18:46;0.10;;;0.10;;
16737;SDS011;17906;47.684;10.806;2023-08-06T12:21:13;0.30;;;0.10;;
16737;SDS011;17906;47.684;10.806;2023-08-06T12:23:40;0.40;;;0.10;;
16737;SDS011;17906;47.684;10.806;2023-08-06T12:26:07;0.10;;;0.00;;
16737;SDS011;17906;47.684;10.806;2023-08-06T12:28:34;0.10;;;0.10;;
16737;SDS011;17906;47.684;10.806;2023-08-06T12:31:01;0.07;;;0.00;;
16737;SDS011;17906;47.684;10.806;2023-08-06T12:33:27;0.17;;;0.10;;
16737;SDS011;17906;47.684;10.806;2023-08-06T12:35:54;0.03;;;0.00;;
16737;SDS011;17906;47.684;10.806;2023-08-06T12:38:20;0.37;;;0.10;;
16737;SDS011;17906;47.684;10.806;2023-08-06T12:40:46;0.00;;;0.00;;
16737;SDS011;17906;47.684;10.806;2023-08-06T12:43:13;0.43;;;0.00;;
16737;SDS011;17906;47.684;10.806;2023-08-06T12:45:40;0.10;;;0.10;;
16737;SDS011;17906;47.684;10.806;2023-08-06T12:48:07;0.10;;;0.10;;
16737;SDS011;17906;47.684;10.806;2023-08-06T12:50:32;0.40;;;0.10;;
16737;SDS011;17906;47.684;10.806;2023-08-06T12:52:59;0.57;;;0.00;;
16737;SDS011;17906;47.684;10.806;2023-08-06T12:55:26;0.23;;;0.10;;
16737;SDS011;17906;47.684;10.806;2023-08-06T12:57:52;0.10;;;0.00;;
16737;SDS011;17906;47.684;10.806;2023-08-06T13:00:18;0.00;;;0.00;;
16737;SDS011;17906;47.684;10.806;2023-08-06T13:02:46;0.53;;;0.10;;
16737;SDS011;17906;47.684;10.806;2023-08-06T13:05:12;0.77;;;0.20;;
16737;SDS011;17906;47.684;10.806;2023-08-06T13:07:39;0.13;;;0.00;;
16737;SDS011;17906;47.684;10.806;2023-08-06T13:10:05;0.10;;;0.10;;
16737;SDS011;17906;47.684;10.806;2023-08-06T13:12:32;0.20;;;0.10;;
16737;SDS011;17906;47.684;10.806;2023-08-06T13:14:58;0.73;;;0.00;;
16737;SDS011;17906;47.684;10.806;2023-08-06T13:17:25;1.33;;;0.10;;
16737;SDS011;17906;47.684;10.806;2023-08-06T13:19:53;0.33;;;0.10;;
16737;SDS011;17906;47.684;10.806;2023-08-06T13:22:19;0.23;;;0.10;;
16737;SDS011;17906;47.684;10.806;2023-08-06T13:24:46;0.30;;;0.10;;
16737;SDS011;17906;47.684;10.806;2023-08-06T13:27:12;0.10;;;0.10;;
16737;SDS011;17906;47.684;10.806;2023-08-06T13:29:38;0.60;;;0.10;;
16737;SDS011;17906;47.684;10.806;2023-08-06T13:32:05;0.00;;;0.00;;
16737;SDS011;17906;47.684;10.806;2023-08-06T13:34:31;0.20;;;0.10;;
16737;SDS011;17906;47.684;10.806;2023-08-06T13:36:59;0.00;;;0.00;;
16737;SDS011;17906;47.684;10.806;2023-08-06T13:39:25;0.60;;;0.10;;
16737;SDS011;17906;47.684;10.806;2023-08-06T13:41:52;0.00;;;0.00;;
16737;SDS011;17906;47.684;10.806;2023-08-06T13:44:18;0.47;;;0.10;;
16737;SDS011;17906;47.684;10.806;2023-08-06T13:46:44;0.83;;;0.10;;
16737;SDS011;17906;47.684;10.806;2023-08-06T13:49:11;0.20;;;0.10;;
16737;SDS011;17906;47.684;10.806;2023-08-06T13:51:37;0.37;;;0.10;;
16737;SDS011;17906;47.684;10.806;2023-08-06T13:54:05;0.00;;;0.00;;
16737;SDS011;17906;47.684;10.806;2023-08-06T13:56:32;1.77;;;0.10;;
16737;SDS011;17906;47.684;10.806;2023-08-06T13:58:58;0.10;;;0.10;;
16737;SDS011;17906;47.684;10.806;2023-08-06T14:01:25;1.07;;;0.10;;
16737;SDS011;17906;47.684;10.806;2023-08-06T14:03:51;0.10;;;0.00;;
16737;SDS011;17906;47.684;10.806;2023-08-06T14:06:18;1.40;;;0.17;;
16737;SDS011;17906;47.684;10.806;2023-08-06T14:08:45;0.10;;;0.10;;
16737;SDS011;17906;47.684;10.806;2023-08-06T14:11:12;0.13;;;0.10;;
16737;SDS011;17906;47.684;10.806;2023-08-06T14:13:39;6.70;;;1.10;;
16737;SDS011;17906;47.684;10.806;2023-08-06T14:16:05;0.33;;;0.10;;
16737;SDS011;17906;47.684;10.806;2023-08-06T14:18:33;1.83;;;0.00;;
16737;SDS011;17906;47.684;10.806;2023-08-06T14:21:00;0.00;;;0.00;;
16737;SDS011;17906;47.684;10.806;2023-08-06T14:23:27;0.10;;;0.00;;
16737;SDS011;17906;47.684;10.806;2023-08-06T14:25:54;0.07;;;0.03;;
16737;SDS011;17906;47.684;10.806;2023-08-06T14:28:21;0.10;;;0.10;;
16737;SDS011;17906;47.684;10.806;2023-08-06T14:30:48;0.00;;;0.00;;
16737;SDS011;17906;47.684;10.806;2023-08-06T14:33:14;0.00;;;0.00;;